Airfield :
LOGIN :

Register | Disclaimer

   EN    FR    IT 

 










Legend :    VFR   Marginal VFR   IFR   Intensive IFR   Very Intensive IFR
Visi :
Ceiling :
>= 8 km
>= 3000ft
5 to 8 km
1000 to 3000 ft
1500m to 5 km
500 to 1000 ft
800 to 1500m
200 to 500 ft
< 800m
< 200 ft
Symbols :   Thunderstorms  Fog  Heavy snow  Heavy precipitations  Wind > 20 kt
SIGMETs :     Misc.  Thunderstorms  Icing  Turbulence  Mountain Waves  Volcanic Ashes






- Airport Elevation : 84 ft


LFBC - Cazaux

CURRENT METAR :
  • 041300Z AUTO 36005KT 300V040 9999 FEW024 OVC076 23/16 Q1021 NOSIG

EXPIRED METARs :
  • 041230Z AUTO VRB03KT 9999 SCT023 SCT070 BKN080 23/17 Q1021 NOSIG
  • 041200Z AUTO 31004KT 280V070 CAVOK 22/17 Q1021 NOSIG
  • 041130Z AUTO 26005KT 9999 FEW016 OVC068 21/17 Q1021 NOSIG
  • 041100Z AUTO 28004KT 210V320 9999 BKN016 OVC068 21/17 Q1021 NOSIG
  • 041030Z AUTO 24005KT 220V280 9999 BKN015 OVC068 21/17 Q1021 NOSIG

TAF TAF LFBC
Valid from the 04 at 03:00 until the 05 at 03:00 UTC


040200Z 0403/0503 33008KT CAVOK



MET'MAP, your aeronautical weather chart ! - Copyright ORBIFLY December 2007 - Disclaimer

ORBIFLY MET'MAP TEAM :

Programming & Development : Alexandra Zaïnal
Original concept : Baudouin d'Aumeries
Technical & hardware support : Manuel Goepfert
Assistance : Marc-Olivier Méhu




SOURCES & CREDITS :

   NOAA